Tetovo, Macedonia
Current Conditions -  °F | °C
As of 4:30 AM on Saturday 29 Nov 2014 (Local Time) from LWSK Reporting Station
Haze Haze  
Wind Chill: 46°   Ceiling: 1000
Heat Index: 46°   Visibility: 3mi
Dew Point: 45°   Wind: 1mph
Humidity: 93%   Direction: 240°WSW
Pressure: 30.21"   Gusts: NA
Location:  42.01°N, 20.97°E
Report Text: LWSK 290230Z 24001KT 5000 BR OVC010 08/07 Q1023 NOSIG
Loading
Personal Weather Stations






























Interactive Weather Map New forecast layout! Learn more

10-Day Weather Forecast

Advertisements
Track Severe Weather on mobile